Atlanta Naval Air Station, Georgia
Current Conditions -  °F | °C
As of 10:58 AM on Monday 24 Nov 2014 (Local Time) from KMGE Reporting Station
Scattered Clouds Scattered Clouds  
Wind Chill: 67°   Ceiling: Unl
Heat Index: 67°   Visibility: 10mi
Dew Point: 59°   Wind: 10mph
Humidity: 75%   Direction: 230°SW
Pressure: 29.82"   Gusts: 20mph
Location:  33.9252°N, 84.5422°W
Report Text: KMGE 241558Z 23009G17KT 10SM SCT020 SCT250 20/15 A2982 RMK AO2A SLP094 T01950149 $
Loading
Personal Weather Stations






























Interactive Weather Map New forecast layout! Learn more

10-Day Weather Forecast

Advertisements
Track Severe Weather on mobile